createdAt,value
2023-04-16T00:01:56.297Z,7.74
2023-04-16T00:04:23.202Z,7.70
2023-04-16T00:06:52.781Z,7.71
2023-04-16T00:09:19.542Z,7.71
2023-04-16T00:11:46.229Z,7.75
2023-04-16T00:14:12.985Z,7.72
2023-04-16T00:16:40.050Z,7.71
2023-04-16T00:19:07.195Z,7.74
2023-04-16T00:21:34.180Z,7.70
2023-04-16T00:24:00.936Z,7.76
2023-04-16T00:26:27.753Z,7.73
2023-04-16T00:28:55.033Z,7.76
2023-04-16T00:31:29.928Z,7.77
2023-04-16T00:33:57.151Z,7.70
2023-04-16T00:36:25.361Z,7.79
2023-04-16T00:38:52.064Z,7.72
2023-04-16T00:41:18.825Z,7.66
2023-04-16T00:43:45.825Z,7.67
2023-04-16T00:46:13.336Z,7.74
2023-04-16T00:48:41.425Z,7.72
2023-04-16T00:51:09.296Z,7.79
2023-04-16T00:53:36.713Z,7.75
2023-04-16T00:56:06.500Z,7.66
2023-04-16T00:58:35.333Z,7.74
2023-04-16T01:01:02.697Z,7.73
2023-04-16T01:03:41.346Z,7.70
2023-04-16T01:06:08.436Z,7.72
2023-04-16T01:08:35.300Z,7.67
2023-04-16T01:11:02.441Z,7.66
2023-04-16T01:13:29.930Z,7.64
2023-04-16T01:15:57.116Z,7.66
2023-04-16T01:18:24.456Z,7.61
2023-04-16T01:20:51.562Z,7.63
2023-04-16T01:23:19.414Z,7.65
2023-04-16T01:25:46.758Z,7.62
2023-04-16T01:28:13.558Z,7.64
2023-04-16T01:30:40.485Z,7.61
2023-04-16T01:33:21.877Z,7.64
2023-04-16T01:35:48.710Z,7.57
2023-04-16T01:38:16.046Z,7.59
2023-04-16T01:40:42.845Z,7.61
2023-04-16T01:43:09.555Z,7.64
2023-04-16T01:45:36.485Z,7.66
2023-04-16T01:48:04.112Z,7.62
2023-04-16T01:50:31.581Z,7.65
2023-04-16T01:52:58.415Z,7.65
2023-04-16T01:55:25.437Z,7.64
2023-04-16T01:57:52.443Z,7.60
2023-04-16T02:00:23.742Z,7.58
2023-04-16T02:02:53.037Z,7.61
2023-04-16T02:05:26.432Z,7.60
2023-04-16T02:07:53.136Z,7.63
2023-04-16T02:10:19.886Z,7.63
2023-04-16T02:12:47.862Z,7.64
2023-04-16T02:15:16.040Z,7.67
2023-04-16T02:17:42.848Z,7.65
2023-04-16T02:20:11.066Z,7.64
2023-04-16T02:22:59.775Z,7.66
2023-04-16T02:25:27.397Z,7.68
2023-04-16T02:27:55.913Z,7.66
2023-04-16T02:30:29.770Z,7.65
2023-04-16T02:32:56.811Z,7.67
2023-04-16T02:35:24.041Z,7.67
2023-04-16T02:37:50.728Z,7.62
2023-04-16T02:40:17.408Z,7.62
2023-04-16T02:42:44.290Z,7.63
2023-04-16T02:45:11.824Z,7.66
2023-04-16T02:47:38.579Z,7.66
2023-04-16T02:50:05.951Z,7.62
2023-04-16T02:52:33.201Z,7.61
2023-04-16T02:55:00.609Z,7.62
2023-04-16T02:57:27.361Z,7.61
2023-04-16T02:59:54.183Z,7.60
2023-04-16T03:02:21.084Z,7.65
2023-04-16T03:04:47.918Z,7.61
2023-04-16T03:07:14.666Z,7.65
2023-04-16T03:09:41.722Z,7.62
2023-04-16T03:12:08.526Z,7.64
2023-04-16T03:14:35.524Z,7.64
2023-04-16T03:17:02.506Z,7.64
2023-04-16T03:19:29.304Z,7.61
2023-04-16T03:21:56.421Z,7.57
2023-04-16T03:24:23.308Z,7.55
2023-04-16T03:26:50.120Z,7.53
2023-04-16T03:29:17.713Z,7.55
2023-04-16T03:31:44.576Z,7.57
2023-04-16T03:34:11.563Z,7.56
2023-04-16T03:36:40.376Z,7.51
2023-04-16T03:39:07.389Z,7.50
2023-04-16T03:41:34.331Z,7.53
2023-04-16T03:44:02.995Z,7.48
2023-04-16T03:46:29.849Z,7.53
2023-04-16T03:48:57.270Z,7.54
2023-04-16T03:51:24.415Z,7.53
2023-04-16T03:53:51.872Z,7.49
2023-04-16T03:56:18.950Z,7.51
2023-04-16T03:58:45.730Z,7.44
2023-04-16T04:01:12.611Z,7.49
2023-04-16T04:03:39.870Z,7.43
2023-04-16T04:06:08.577Z,7.46
2023-04-16T04:08:35.483Z,7.46
2023-04-16T04:11:04.070Z,7.45
2023-04-16T04:13:32.016Z,7.51
2023-04-16T04:15:58.923Z,7.47
2023-04-16T04:18:27.093Z,7.51
2023-04-16T04:20:54.043Z,7.47
2023-04-16T04:23:24.468Z,7.48
2023-04-16T04:25:51.446Z,7.43
2023-04-16T04:28:18.416Z,7.44
2023-04-16T04:30:45.393Z,7.45
2023-04-16T04:33:12.806Z,7.44
2023-04-16T04:35:39.866Z,7.43
2023-04-16T04:38:08.642Z,7.44
2023-04-16T04:40:35.829Z,7.42
2023-04-16T04:43:03.383Z,7.45
2023-04-16T04:45:31.966Z,7.42
2023-04-16T04:47:59.234Z,7.44
2023-04-16T04:50:26.044Z,7.44
2023-04-16T04:52:52.864Z,7.50
2023-04-16T04:55:19.632Z,7.51
2023-04-16T04:57:46.483Z,7.51
2023-04-16T05:00:13.685Z,7.51
2023-04-16T05:02:50.605Z,7.55
2023-04-16T05:05:17.474Z,7.49
2023-04-16T05:07:44.620Z,7.52
2023-04-16T05:10:11.299Z,7.54
2023-04-16T05:12:38.084Z,7.54
2023-04-16T05:15:05.134Z,7.58
2023-04-16T05:17:31.802Z,7.60
2023-04-16T05:19:58.557Z,7.63
2023-04-16T05:22:25.377Z,7.57
2023-04-16T05:24:52.098Z,7.58
2023-04-16T05:27:18.778Z,7.56
2023-04-16T05:29:45.484Z,7.60
2023-04-16T05:32:12.356Z,7.59
2023-04-16T05:34:39.061Z,7.62
2023-04-16T05:37:05.747Z,7.62
2023-04-16T05:39:32.493Z,7.65
2023-04-16T05:41:59.190Z,7.62
2023-04-16T05:44:26.086Z,7.65
2023-04-16T05:46:53.024Z,7.67
2023-04-16T05:49:20.355Z,7.67
2023-04-16T05:51:47.392Z,7.67
2023-04-16T05:54:14.216Z,7.66
2023-04-16T05:56:41.244Z,7.67
2023-04-16T05:59:08.290Z,7.68
2023-04-16T06:01:35.136Z,7.68
2023-04-16T06:04:01.964Z,7.68
2023-04-16T06:06:28.758Z,7.69
2023-04-16T06:08:55.409Z,7.72
2023-04-16T06:11:22.352Z,7.70
2023-04-16T06:13:49.029Z,7.75
2023-04-16T06:16:15.733Z,7.75
2023-04-16T06:18:42.691Z,7.74
2023-04-16T06:21:09.413Z,7.76
2023-04-16T06:23:36.124Z,7.79
2023-04-16T06:26:02.880Z,7.81
2023-04-16T06:28:29.609Z,7.81
2023-04-16T06:30:56.428Z,7.80
2023-04-16T06:33:23.867Z,7.81
2023-04-16T06:35:50.998Z,7.82
2023-04-16T06:38:17.770Z,7.84
2023-04-16T06:40:44.759Z,7.84
2023-04-16T06:43:11.997Z,7.86
2023-04-16T06:45:39.315Z,7.93
2023-04-16T06:48:06.252Z,7.91
2023-04-16T06:50:33.198Z,7.98
2023-04-16T06:52:59.998Z,8.01
2023-04-16T06:55:26.629Z,8.01
2023-04-16T06:57:53.277Z,8.03
2023-04-16T07:00:20.066Z,8.06
2023-04-16T07:02:46.996Z,8.04
2023-04-16T07:05:13.743Z,8.06
2023-04-16T07:07:40.537Z,8.11
2023-04-16T07:10:08.386Z,8.12
2023-04-16T07:12:35.131Z,8.16
2023-04-16T07:15:01.806Z,8.19
2023-04-16T07:17:28.482Z,8.22
2023-04-16T07:19:55.155Z,8.21
2023-04-16T07:22:21.890Z,8.22
2023-04-16T07:24:48.577Z,8.23
2023-04-16T07:27:15.424Z,8.26
2023-04-16T07:29:42.099Z,8.24
2023-04-16T07:32:09.021Z,8.25
2023-04-16T07:34:36.024Z,8.24
2023-04-16T07:37:02.701Z,8.29
2023-04-16T07:39:29.401Z,8.35
2023-04-16T07:41:56.137Z,8.33
2023-04-16T07:44:23.002Z,8.30
2023-04-16T07:46:49.752Z,8.34
2023-04-16T07:49:16.569Z,8.40
2023-04-16T07:51:43.295Z,8.35
2023-04-16T07:54:10.910Z,8.41
2023-04-16T07:56:37.615Z,8.41
2023-04-16T07:59:18.353Z,8.41
2023-04-16T08:01:48.478Z,8.41
2023-04-16T08:04:17.571Z,8.40
2023-04-16T08:06:44.389Z,8.40
2023-04-16T08:09:11.466Z,8.43
2023-04-16T08:11:38.373Z,8.42
2023-04-16T08:14:05.044Z,8.44
2023-04-16T08:16:31.953Z,8.45
2023-04-16T08:19:01.169Z,8.45
2023-04-16T08:21:28.295Z,8.45
2023-04-16T08:23:54.976Z,8.41
2023-04-16T08:26:21.706Z,8.45
2023-04-16T08:28:48.412Z,8.47
2023-04-16T08:31:15.246Z,8.50
2023-04-16T08:33:42.195Z,8.48
2023-04-16T08:36:09.816Z,8.47
2023-04-16T08:38:37.029Z,8.49
2023-04-16T08:41:06.762Z,8.49
2023-04-16T08:43:34.754Z,8.52
2023-04-16T08:46:02.040Z,8.52
2023-04-16T08:48:34.284Z,8.57
2023-04-16T08:51:02.432Z,8.60
2023-04-16T08:53:52.113Z,8.65
2023-04-16T08:56:22.051Z,8.61
2023-04-16T08:58:50.645Z,8.59
2023-04-16T09:01:19.277Z,8.57
2023-04-16T09:03:48.783Z,8.55
2023-04-16T09:06:17.074Z,8.57
2023-04-16T09:08:48.310Z,8.55
2023-04-16T09:11:18.325Z,8.59
2023-04-16T09:13:46.802Z,8.58
2023-04-16T09:16:15.066Z,8.63
2023-04-16T09:18:42.082Z,8.59
2023-04-16T09:21:11.403Z,8.61
2023-04-16T09:23:41.451Z,8.60
2023-04-16T09:26:08.159Z,8.56
2023-04-16T09:28:46.162Z,8.59
2023-04-16T09:31:14.315Z,8.65
2023-04-16T09:33:41.677Z,8.67
2023-04-16T09:36:08.841Z,8.69
2023-04-16T09:38:48.196Z,8.72
2023-04-16T09:41:18.446Z,8.80
2023-04-16T09:44:02.316Z,8.82
2023-04-16T09:46:35.241Z,8.79
2023-04-16T09:49:09.448Z,8.86
2023-04-16T09:51:44.231Z,8.93
2023-04-16T09:54:11.098Z,8.93
2023-04-16T09:56:42.712Z,8.96
2023-04-16T09:59:17.042Z,9.02
2023-04-16T10:01:43.824Z,9.05
2023-04-16T10:04:10.878Z,9.06
2023-04-16T10:06:37.600Z,9.03
2023-04-16T10:09:07.988Z,9.04
2023-04-16T10:11:35.128Z,9.10
2023-04-16T10:14:02.021Z,9.14
2023-04-16T10:16:29.891Z,9.18
2023-04-16T10:18:56.972Z,9.22
2023-04-16T10:21:24.105Z,9.21
2023-04-16T10:23:52.259Z,9.36
2023-04-16T10:26:19.752Z,9.44
2023-04-16T10:28:47.138Z,9.58
2023-04-16T10:31:14.335Z,9.60
2023-04-16T10:33:42.360Z,9.63
2023-04-16T10:36:13.557Z,9.79
2023-04-16T10:39:00.918Z,9.76
2023-04-16T10:41:28.203Z,9.68
2023-04-16T10:44:09.991Z,9.74
2023-04-16T10:46:44.756Z,9.70
2023-04-16T10:49:24.507Z,9.77
2023-04-16T10:51:57.852Z,9.89
2023-04-16T10:54:26.479Z,9.90
2023-04-16T10:56:55.927Z,10.06
2023-04-16T10:59:24.124Z,10.14
2023-04-16T11:01:53.887Z,10.15
2023-04-16T11:04:21.025Z,10.09
2023-04-16T11:07:16.599Z,10.19
2023-04-16T11:09:52.873Z,10.31
2023-04-16T11:12:22.569Z,10.33
2023-04-16T11:14:51.351Z,10.24
2023-04-16T11:17:19.127Z,10.38
2023-04-16T11:19:46.710Z,10.34
2023-04-16T11:22:17.276Z,10.37
2023-04-16T11:24:47.657Z,10.56
2023-04-16T11:27:15.380Z,10.64
2023-04-16T11:29:42.423Z,10.67
2023-04-16T11:32:09.198Z,10.59
2023-04-16T11:34:43.959Z,10.59
2023-04-16T11:37:10.997Z,10.54
2023-04-16T11:39:48.850Z,10.62
2023-04-16T11:42:21.416Z,10.71
2023-04-16T11:44:52.392Z,10.72
2023-04-16T11:47:19.301Z,10.70
2023-04-16T11:49:46.009Z,10.72
2023-04-16T11:52:12.913Z,10.59
2023-04-16T11:54:40.091Z,10.51
2023-04-16T11:57:07.264Z,10.51
2023-04-16T11:59:34.364Z,10.78
2023-04-16T12:02:01.110Z,11.22
2023-04-16T12:04:29.577Z,11.19
2023-04-16T12:07:08.785Z,11.14
2023-04-16T12:09:38.711Z,11.22
2023-04-16T12:12:25.450Z,11.20
2023-04-16T12:14:53.786Z,11.00
2023-04-16T12:17:21.188Z,10.98
2023-04-16T12:19:52.159Z,11.06
2023-04-16T12:22:36.802Z,10.87
2023-04-16T12:25:07.976Z,10.86
2023-04-16T12:27:49.004Z,11.07
2023-04-16T12:30:19.598Z,11.24
2023-04-16T12:32:48.561Z,11.44
2023-04-16T12:35:33.115Z,11.74
2023-04-16T12:38:00.472Z,12.07
2023-04-16T12:40:27.683Z,12.11
2023-04-16T12:42:55.027Z,12.05
2023-04-16T12:45:22.626Z,12.06
2023-04-16T12:47:50.629Z,11.89
2023-04-16T12:50:17.839Z,11.97
2023-04-16T12:52:44.785Z,12.10
2023-04-16T12:55:12.408Z,12.00
2023-04-16T12:57:39.161Z,12.03
2023-04-16T13:00:07.004Z,12.13
2023-04-16T13:02:34.318Z,12.52
2023-04-16T13:05:01.621Z,12.55
2023-04-16T13:07:28.485Z,12.67
2023-04-16T13:09:55.205Z,12.71
2023-04-16T13:12:21.839Z,12.84
2023-04-16T13:14:49.006Z,13.19
2023-04-16T13:17:15.647Z,13.10
2023-04-16T13:19:42.313Z,12.65
2023-04-16T13:22:09.696Z,12.86
2023-04-16T13:24:36.774Z,12.96
2023-04-16T13:27:03.661Z,12.84
2023-04-16T13:29:30.538Z,12.77
2023-04-16T13:31:57.747Z,12.74
2023-04-16T13:34:24.512Z,12.45
2023-04-16T13:36:51.203Z,12.65
2023-04-16T13:39:17.849Z,12.61
2023-04-16T13:41:44.529Z,12.59
2023-04-16T13:44:11.279Z,13.00
2023-04-16T13:46:38.062Z,13.03
2023-04-16T13:49:04.789Z,13.05
2023-04-16T13:51:32.277Z,12.78
2023-04-16T13:53:59.149Z,12.79
2023-04-16T13:56:25.895Z,12.70
2023-04-16T13:58:52.634Z,13.07
2023-04-16T14:01:19.718Z,13.15
2023-04-16T14:03:46.838Z,13.41
2023-04-16T14:06:15.231Z,14.17
2023-04-16T14:08:42.033Z,13.90
2023-04-16T14:11:09.340Z,14.15
2023-04-16T14:13:36.802Z,14.35
2023-04-16T14:16:03.949Z,13.91
2023-04-16T14:18:31.146Z,13.96
2023-04-16T14:20:58.804Z,14.09
2023-04-16T14:23:25.610Z,13.52
2023-04-16T14:25:52.369Z,13.85
2023-04-16T14:28:20.667Z,13.52
2023-04-16T14:30:47.495Z,13.44
2023-04-16T14:33:17.289Z,13.25
2023-04-16T14:35:44.037Z,13.16
2023-04-16T14:38:11.729Z,13.32
2023-04-16T14:40:38.473Z,13.01
2023-04-16T14:43:05.942Z,12.79
2023-04-16T14:45:33.772Z,12.87
2023-04-16T14:48:00.677Z,12.94
2023-04-16T14:50:27.912Z,12.69
2023-04-16T14:52:54.798Z,12.64
2023-04-16T14:55:21.804Z,12.67
2023-04-16T14:57:48.509Z,12.60
2023-04-16T15:00:18.902Z,12.55
2023-04-16T15:02:47.406Z,12.53
2023-04-16T15:05:14.339Z,12.54
2023-04-16T15:07:41.137Z,12.50
2023-04-16T15:10:09.668Z,12.58
2023-04-16T15:12:37.340Z,12.52
2023-04-16T15:15:06.142Z,12.67
2023-04-16T15:17:32.964Z,12.48
2023-04-16T15:19:59.731Z,12.55
2023-04-16T15:22:26.502Z,12.43
2023-04-16T15:24:54.217Z,12.63
2023-04-16T15:27:20.918Z,12.41
2023-04-16T15:29:49.574Z,12.38
2023-04-16T15:32:16.428Z,12.32
2023-04-16T15:34:43.181Z,12.15
2023-04-16T15:37:09.973Z,12.09
2023-04-16T15:39:36.750Z,12.28
2023-04-16T15:42:07.399Z,12.28
2023-04-16T15:44:34.984Z,12.20
2023-04-16T15:47:01.912Z,12.08
2023-04-16T15:49:28.893Z,12.11
2023-04-16T15:51:56.216Z,12.36
2023-04-16T15:54:23.784Z,12.26
2023-04-16T15:56:51.475Z,12.33
2023-04-16T15:59:18.421Z,12.32
2023-04-16T16:01:45.362Z,12.16
2023-04-16T16:04:12.437Z,12.15
2023-04-16T16:06:39.328Z,12.18
2023-04-16T16:09:06.394Z,12.21
2023-04-16T16:11:33.220Z,12.37
2023-04-16T16:14:03.274Z,12.22
2023-04-16T16:16:30.116Z,12.08
2023-04-16T16:18:56.902Z,11.94
2023-04-16T16:21:23.733Z,11.87
2023-04-16T16:23:50.670Z,11.96
2023-04-16T16:26:17.854Z,11.82
2023-04-16T16:28:44.895Z,11.91
2023-04-16T16:31:12.556Z,11.76
2023-04-16T16:33:40.462Z,11.68
2023-04-16T16:36:11.086Z,11.71
2023-04-16T16:38:38.273Z,11.51
2023-04-16T16:41:05.033Z,11.60
2023-04-16T16:43:31.736Z,11.54
2023-04-16T16:45:58.399Z,11.61
2023-04-16T16:48:25.251Z,11.55
2023-04-16T16:50:51.970Z,11.41
2023-04-16T16:53:18.819Z,11.49
2023-04-16T16:55:45.927Z,11.45
2023-04-16T16:58:12.683Z,11.34
2023-04-16T17:00:39.584Z,11.35
2023-04-16T17:03:06.558Z,11.31
2023-04-16T17:05:33.303Z,11.29
2023-04-16T17:08:00.060Z,11.27
2023-04-16T17:10:26.898Z,11.27
2023-04-16T17:12:53.669Z,11.21
2023-04-16T17:15:21.889Z,11.11
2023-04-16T17:17:48.981Z,11.13
2023-04-16T17:20:16.131Z,11.12
2023-04-16T17:22:43.032Z,11.07
2023-04-16T17:25:10.055Z,11.05
2023-04-16T17:27:36.832Z,11.01
2023-04-16T17:30:05.583Z,10.93
2023-04-16T17:32:32.969Z,10.83
2023-04-16T17:35:01.157Z,10.74
2023-04-16T17:37:28.710Z,10.77
2023-04-16T17:39:55.444Z,10.72
2023-04-16T17:42:22.217Z,10.70
2023-04-16T17:44:49.018Z,10.71
2023-04-16T17:47:15.772Z,10.63
2023-04-16T17:49:42.573Z,10.65
2023-04-16T17:52:09.346Z,10.54
2023-04-16T17:54:36.167Z,10.59
2023-04-16T17:57:03.075Z,10.50
2023-04-16T17:59:29.834Z,10.49
2023-04-16T18:01:56.910Z,10.48
2023-04-16T18:04:23.964Z,10.48
2023-04-16T18:06:50.916Z,10.43
2023-04-16T18:09:19.220Z,10.39
2023-04-16T18:11:45.984Z,10.39
2023-04-16T18:14:16.900Z,10.40
2023-04-16T18:16:43.876Z,10.37
2023-04-16T18:19:10.755Z,10.37
2023-04-16T18:21:37.622Z,10.31
2023-04-16T18:24:04.579Z,10.29
2023-04-16T18:26:35.620Z,10.23
2023-04-16T18:29:03.131Z,10.22
2023-04-16T18:31:30.018Z,10.17
2023-04-16T18:33:58.310Z,10.13
2023-04-16T18:36:27.031Z,10.12
2023-04-16T18:39:01.104Z,10.14
2023-04-16T18:41:29.474Z,10.06
2023-04-16T18:43:56.353Z,10.08
2023-04-16T18:46:23.223Z,10.00
2023-04-16T18:48:49.993Z,9.95
2023-04-16T18:51:16.962Z,9.91
2023-04-16T18:53:45.711Z,9.78
2023-04-16T18:56:12.952Z,9.85
2023-04-16T18:58:39.713Z,9.86
2023-04-16T19:01:11.297Z,9.85
2023-04-16T19:03:38.704Z,9.81
2023-04-16T19:06:06.275Z,9.77
2023-04-16T19:08:33.181Z,9.81
2023-04-16T19:10:59.968Z,9.76
2023-04-16T19:13:26.757Z,9.72
2023-04-16T19:16:03.053Z,9.68
2023-04-16T19:18:29.824Z,9.68
2023-04-16T19:21:00.849Z,9.66
2023-04-16T19:23:27.974Z,9.66
2023-04-16T19:25:57.020Z,9.65
2023-04-16T19:28:24.724Z,9.66
2023-04-16T19:30:52.250Z,9.64
2023-04-16T19:33:19.313Z,9.66
2023-04-16T19:35:47.415Z,9.71
2023-04-16T19:38:14.564Z,9.70
2023-04-16T19:40:44.995Z,9.67
2023-04-16T19:43:11.858Z,9.64
2023-04-16T19:45:52.671Z,9.62
2023-04-16T19:48:20.092Z,9.63
2023-04-16T19:50:46.902Z,9.63
2023-04-16T19:53:13.717Z,9.60
2023-04-16T19:55:41.393Z,9.54
2023-04-16T19:58:09.038Z,9.53
2023-04-16T20:00:41.109Z,9.49
2023-04-16T20:03:08.262Z,9.48
2023-04-16T20:05:35.251Z,9.46
2023-04-16T20:08:01.999Z,9.38
2023-04-16T20:10:29.563Z,9.38
2023-04-16T20:12:56.560Z,9.36
2023-04-16T20:15:23.267Z,9.28
2023-04-16T20:17:50.072Z,9.26
2023-04-16T20:20:16.929Z,9.29
2023-04-16T20:22:43.892Z,9.30
2023-04-16T20:25:10.962Z,9.23
2023-04-16T20:27:37.863Z,9.23
2023-04-16T20:30:06.453Z,9.23
2023-04-16T20:32:33.363Z,9.33
2023-04-16T20:35:00.203Z,9.24
2023-04-16T20:37:29.200Z,9.26
2023-04-16T20:39:56.433Z,9.27
2023-04-16T20:42:23.646Z,9.20
2023-04-16T20:44:50.695Z,9.17
2023-04-16T20:47:17.531Z,9.15
2023-04-16T20:49:47.583Z,9.17
2023-04-16T20:52:14.530Z,9.09
2023-04-16T20:54:41.751Z,9.16
2023-04-16T20:57:08.498Z,9.15
2023-04-16T20:59:36.409Z,9.15
2023-04-16T21:02:03.273Z,9.12
2023-04-16T21:04:30.294Z,9.15
2023-04-16T21:06:57.112Z,9.18
2023-04-16T21:09:23.871Z,9.17
2023-04-16T21:11:50.544Z,9.17
2023-04-16T21:14:17.294Z,9.21
2023-04-16T21:16:44.113Z,9.20
2023-04-16T21:19:11.160Z,9.21
2023-04-16T21:21:39.076Z,9.20
2023-04-16T21:24:06.169Z,9.21
2023-04-16T21:26:32.928Z,9.16
2023-04-16T21:28:59.585Z,9.15
2023-04-16T21:31:26.317Z,9.21
2023-04-16T21:33:53.028Z,9.16
2023-04-16T21:36:19.939Z,9.14
2023-04-16T21:38:46.692Z,9.20
2023-04-16T21:41:13.394Z,9.15
2023-04-16T21:43:40.102Z,9.12
2023-04-16T21:46:06.733Z,9.13
2023-04-16T21:48:33.499Z,9.10
2023-04-16T21:51:06.727Z,9.11
2023-04-16T21:53:34.272Z,9.14
2023-04-16T21:56:00.961Z,9.12
2023-04-16T21:58:27.944Z,9.15
2023-04-16T22:00:54.784Z,9.14
2023-04-16T22:03:28.192Z,9.11
2023-04-16T22:06:01.257Z,9.11
2023-04-16T22:08:31.627Z,9.11
2023-04-16T22:10:59.703Z,9.13
2023-04-16T22:13:26.684Z,9.13
2023-04-16T22:15:54.982Z,9.10
2023-04-16T22:18:24.439Z,9.14
2023-04-16T22:20:55.066Z,9.12
2023-04-16T22:23:23.309Z,9.11
2023-04-16T22:25:50.127Z,9.05
2023-04-16T22:28:16.840Z,9.04
2023-04-16T22:30:43.587Z,9.01
2023-04-16T22:33:10.532Z,9.00
2023-04-16T22:35:37.226Z,8.97
2023-04-16T22:38:04.010Z,8.95
2023-04-16T22:40:32.153Z,8.95
2023-04-16T22:42:59.067Z,8.92
2023-04-16T22:45:26.245Z,8.92
2023-04-16T22:47:53.054Z,8.85
2023-04-16T22:50:20.114Z,8.88
2023-04-16T22:52:46.870Z,8.90
2023-04-16T22:55:13.621Z,8.85
2023-04-16T22:57:40.729Z,8.84
2023-04-16T23:00:14.837Z,8.80
2023-04-16T23:02:41.766Z,8.79
2023-04-16T23:05:08.773Z,8.75
2023-04-16T23:07:35.661Z,8.72
2023-04-16T23:10:02.484Z,8.74
2023-04-16T23:12:29.175Z,8.72
2023-04-16T23:14:56.538Z,8.71
2023-04-16T23:17:23.363Z,8.67
2023-04-16T23:19:50.031Z,8.68
2023-04-16T23:22:16.749Z,8.66
2023-04-16T23:24:43.507Z,8.73
2023-04-16T23:27:10.837Z,8.65
2023-04-16T23:29:37.574Z,8.67
2023-04-16T23:32:04.444Z,8.72
2023-04-16T23:34:31.122Z,8.69
2023-04-16T23:36:57.856Z,8.68
2023-04-16T23:39:24.563Z,8.62
2023-04-16T23:41:51.602Z,8.62
2023-04-16T23:44:18.274Z,8.67
2023-04-16T23:46:45.175Z,8.68
2023-04-16T23:49:12.051Z,8.64
2023-04-16T23:51:38.831Z,8.64
2023-04-16T23:54:05.852Z,8.60
2023-04-16T23:56:32.826Z,8.58
2023-04-16T23:58:59.529Z,8.60
